Alta, California
Current Conditions -  °F | °C
As of 6:52 AM on Wednesday 26 Nov 2014 (Local Time) from KBLU Reporting Station
Clear Clear  
Wind Chill: 14°   Ceiling: Unl
Heat Index: 14°   Visibility: 10mi
Dew Point: -11°   Wind: 3mph
Humidity: 17%   Direction: 100°E
Pressure: 30.44"   Gusts: NA
Location:  39.21°N, 120.81°W
Report Text: KBLU 261452Z AUTO 10003KT 10SM CLR 14/M11 A3044 RMK AO2 SLP252 T01441106 56001
Loading
Personal Weather Stations






























Interactive Weather Map New forecast layout! Learn more

10-Day Weather Forecast

Advertisements
Track Severe Weather on mobile